Time;durP1;ratioP1;P1;durP2;ratioP2;P2;SDS_P1;SDS_P2;PMS_P1;PMS_P2;Temp;Humidity;BMP_temperature;BMP_pressure;BME280_temperature;BME280_humidity;BME280_pressure;Samples;Min_cycle;Max_cycle;Signal;HPM_P1;HPM_P2
2023/10/23 00:01:01;;;;;;;1.80;0.80;;;6.30;99.90;;;;;;5087996;28;20204;-72
2023/10/23 00:03:27;;;;;;;2.97;1.10;;;6.20;99.90;;;;;;5068119;28;20693;-71
2023/10/23 00:05:52;;;;;;;4.50;1.90;;;6.00;99.90;;;;;;5085690;28;20704;-71
2023/10/23 00:08:18;;;;;;;1.73;1.00;;;6.10;99.90;;;;;;5066776;28;20184;-71
2023/10/23 00:10:44;;;;;;;2.93;1.00;;;6.20;99.90;;;;;;5067396;28;21179;-72
2023/10/23 00:13:11;;;;;;;3.90;1.50;;;6.10;99.90;;;;;;5087072;28;20193;-72
2023/10/23 00:15:37;;;;;;;5.80;1.63;;;6.10;99.90;;;;;;5086312;28;20762;-71
2023/10/23 00:18:02;;;;;;;2.27;1.30;;;6.10;99.90;;;;;;5084741;28;20432;-71
2023/10/23 00:20:28;;;;;;;5.17;2.40;;;6.00;99.90;;;;;;5084294;28;20203;-70
2023/10/23 00:22:54;;;;;;;12.57;2.93;;;6.10;99.90;;;;;;5069067;28;20220;-70
2023/10/23 00:25:19;;;;;;;4.00;1.70;;;6.00;99.90;;;;;;5067254;28;20213;-71
2023/10/23 00:27:45;;;;;;;2.13;1.30;;;6.00;99.90;;;;;;5088203;28;20184;-73
2023/10/23 00:30:11;;;;;;;4.07;1.53;;;6.00;99.90;;;;;;5088129;28;20180;-73
2023/10/23 00:32:36;;;;;;;2.07;0.90;;;5.90;99.90;;;;;;5085639;28;20223;-72
2023/10/23 00:35:02;;;;;;;1.40;0.70;;;5.90;99.90;;;;;;5089053;28;20180;-71
2023/10/23 00:37:28;;;;;;;4.97;2.07;;;6.00;99.90;;;;;;5087508;28;20172;-71
2023/10/23 00:39:53;;;;;;;6.57;2.90;;;5.90;99.90;;;;;;5087195;28;20285;-71
2023/10/23 00:42:19;;;;;;;6.60;2.80;;;5.80;99.90;;;;;;5087060;28;20220;-71
2023/10/23 00:44:45;;;;;;;23.57;10.17;;;5.70;99.90;;;;;;5087472;28;20227;-71
2023/10/23 00:47:11;;;;;;;12.17;6.10;;;5.70;99.90;;;;;;5086305;28;20680;-70
2023/10/23 00:49:37;;;;;;;143.17;47.20;;;5.80;99.90;;;;;;5084853;28;20185;-71
2023/10/23 00:52:03;;;;;;;48.60;16.37;;;5.80;99.90;;;;;;5084901;28;20984;-72
2023/10/23 00:54:30;;;;;;;17.63;4.80;;;5.60;99.90;;;;;;5087777;28;20438;-71
2023/10/23 00:56:56;;;;;;;3.17;1.20;;;5.70;99.90;;;;;;5086800;28;20852;-70
2023/10/23 00:59:22;;;;;;;4.07;1.00;;;5.70;99.90;;;;;;5087153;28;20423;-71
2023/10/23 01:01:48;;;;;;;9.57;0.80;;;5.80;99.90;;;;;;5060948;28;21434;-71
2023/10/23 01:04:13;;;;;;;3.33;1.30;;;5.80;99.90;;;;;;5086092;28;20427;-74
2023/10/23 01:06:39;;;;;;;23.63;8.83;;;5.80;99.90;;;;;;5068551;28;20234;-74
2023/10/23 01:09:06;;;;;;;17.53;6.63;;;5.70;99.90;;;;;;5064889;28;20184;-72
2023/10/23 01:11:32;;;;;;;4.53;1.33;;;5.70;99.90;;;;;;5066819;28;21032;-71
2023/10/23 01:13:58;;;;;;;2.47;1.37;;;5.60;99.90;;;;;;5085371;28;20426;-74
2023/10/23 01:16:23;;;;;;;2.07;0.90;;;5.60;99.90;;;;;;5087006;28;20446;-72
2023/10/23 01:18:49;;;;;;;1.30;0.60;;;5.60;99.90;;;;;;5084254;28;20637;-72
2023/10/23 01:21:15;;;;;;;1.80;0.90;;;5.60;99.90;;;;;;5086211;28;20204;-71
2023/10/23 01:23:43;;;;;;;6.40;1.27;;;5.60;99.90;;;;;;5087252;28;20219;-73
2023/10/23 01:26:08;;;;;;;2.90;1.07;;;5.60;99.90;;;;;;5087942;28;20821;-71
2023/10/23 01:28:34;;;;;;;2.33;1.40;;;5.60;99.90;;;;;;5086840;28;20437;-72
2023/10/23 01:31:00;;;;;;;3.17;1.03;;;5.60;99.90;;;;;;5085395;28;21282;-74
2023/10/23 01:33:25;;;;;;;3.33;0.80;;;5.50;99.90;;;;;;5082572;28;20189;-70
2023/10/23 01:35:51;;;;;;;3.27;1.13;;;5.50;99.90;;;;;;5085111;28;20192;-70
2023/10/23 01:38:18;;;;;;;5.10;1.07;;;5.50;99.90;;;;;;5085179;28;20188;-71
2023/10/23 01:40:43;;;;;;;1.50;0.80;;;5.60;99.90;;;;;;5085321;28;20642;-71
2023/10/23 01:43:09;;;;;;;3.63;1.30;;;5.50;99.90;;;;;;5079294;28;20485;-71
2023/10/23 01:45:34;;;;;;;4.90;1.33;;;5.50;99.90;;;;;;5068519;28;20702;-70
2023/10/23 01:48:00;;;;;;;2.40;0.90;;;5.40;99.90;;;;;;5066350;28;20182;-71
2023/10/23 01:50:26;;;;;;;5.63;1.10;;;5.40;99.90;;;;;;5066430;28;20637;-70
2023/10/23 01:52:51;;;;;;;2.17;1.20;;;5.30;99.90;;;;;;5067180;28;20188;-70
2023/10/23 01:55:17;;;;;;;8.40;0.90;;;5.30;99.90;;;;;;5066613;28;20200;-72
2023/10/23 01:57:43;;;;;;;2.37;0.70;;;5.20;99.90;;;;;;5066433;28;20196;-71
2023/10/23 02:00:10;;;;;;;2.40;0.87;;;5.20;99.90;;;;;;5067017;28;20359;-71
2023/10/23 02:02:36;;;;;;;1.83;0.90;;;5.20;99.90;;;;;;5065538;28;20200;-71
2023/10/23 02:05:02;;;;;;;1.63;0.80;;;5.20;99.90;;;;;;5066689;28;20963;-70
2023/10/23 02:07:28;;;;;;;3.23;1.17;;;5.20;99.90;;;;;;5047994;28;20453;-71
2023/10/23 02:09:56;;;;;;;2.47;1.20;;;5.20;99.90;;;;;;5069823;28;20432;-70
2023/10/23 02:12:21;;;;;;;3.20;1.23;;;5.20;99.90;;;;;;5089424;28;20212;-78
2023/10/23 02:14:50;;;;;;;5.30;1.07;;;5.20;99.90;;;;;;5092923;28;20435;-76
2023/10/23 02:17:19;;;;;;;2.13;0.87;;;5.10;99.90;;;;;;5092698;28;20228;-77
2023/10/23 02:19:45;;;;;;;4.60;1.23;;;5.10;99.90;;;;;;5093383;28;20454;-72
2023/10/23 02:22:11;;;;;;;3.27;1.00;;;5.10;99.90;;;;;;5061830;28;20467;-71
2023/10/23 02:24:37;;;;;;;5.27;0.70;;;5.10;99.90;;;;;;5063339;28;20561;-70
2023/10/23 02:27:02;;;;;;;4.17;0.83;;;5.10;99.90;;;;;;5043936;28;20181;-70
2023/10/23 02:29:29;;;;;;;3.27;1.20;;;5.00;99.90;;;;;;5065618;28;20276;-70
2023/10/23 02:31:55;;;;;;;3.70;1.00;;;5.00;99.90;;;;;;5065209;28;20228;-71
2023/10/23 02:34:21;;;;;;;2.53;1.00;;;5.00;99.90;;;;;;5064813;28;20811;-71
2023/10/23 02:36:47;;;;;;;2.13;1.10;;;4.90;99.90;;;;;;5066157;28;20427;-70
2023/10/23 02:39:13;;;;;;;1.60;1.10;;;4.90;99.90;;;;;;5071370;28;20431;-70
2023/10/23 02:41:38;;;;;;;2.50;1.17;;;4.90;99.90;;;;;;5067925;28;20544;-72
2023/10/23 02:44:05;;;;;;;7.20;0.80;;;4.90;99.90;;;;;;5077634;28;20588;-70
2023/10/23 02:46:34;;;;;;;2.00;1.03;;;4.90;99.90;;;;;;5086848;28;20193;-74
2023/10/23 02:49:00;;;;;;;3.77;0.90;;;4.90;99.90;;;;;;5090763;28;20813;-70
2023/10/23 02:51:26;;;;;;;4.40;1.17;;;4.90;99.90;;;;;;5096224;28;20443;-72
2023/10/23 02:53:51;;;;;;;3.77;1.10;;;4.90;99.90;;;;;;5076694;28;20423;-71
2023/10/23 02:56:17;;;;;;;2.03;0.90;;;4.80;99.90;;;;;;5094901;28;20188;-71
2023/10/23 02:58:42;;;;;;;3.30;1.20;;;4.70;99.90;;;;;;5081507;28;20191;-70
2023/10/23 03:01:20;;;;;;;1.40;0.70;;;4.80;99.90;;;;;;5097824;28;20204;-68
2023/10/23 03:03:46;;;;;;;2.10;1.00;;;4.70;99.90;;;;;;5093996;28;20684;-71
2023/10/23 03:06:12;;;;;;;2.47;0.83;;;4.60;99.90;;;;;;5097103;28;20437;-71
2023/10/23 03:08:38;;;;;;;2.40;1.20;;;4.60;99.90;;;;;;5102470;28;20907;-70
2023/10/23 03:11:04;;;;;;;3.03;1.00;;;4.60;99.90;;;;;;5094308;28;20720;-71
2023/10/23 03:13:29;;;;;;;5.07;1.27;;;4.60;99.90;;;;;;5094443;28;20207;-71
2023/10/23 03:15:55;;;;;;;2.13;0.80;;;4.50;99.90;;;;;;5084031;28;20426;-73
2023/10/23 03:18:21;;;;;;;1.30;0.70;;;4.60;99.90;;;;;;5091352;28;20200;-71
2023/10/23 03:20:46;;;;;;;1.77;0.70;;;4.70;99.90;;;;;;5079384;28;20713;-71
2023/10/23 03:23:12;;;;;;;3.87;0.70;;;4.70;99.90;;;;;;5075790;28;20708;-71
2023/10/23 03:25:37;;;;;;;4.23;1.43;;;4.70;99.90;;;;;;5077407;28;20181;-71
2023/10/23 03:28:03;;;;;;;1.70;1.10;;;4.60;99.90;;;;;;5078589;28;20181;-72
2023/10/23 03:30:29;;;;;;;2.27;1.00;;;4.60;99.90;;;;;;5079925;28;20188;-71
2023/10/23 03:32:54;;;;;;;2.80;1.03;;;4.50;99.90;;;;;;5083741;28;20191;-70
2023/10/23 03:35:20;;;;;;;1.40;0.90;;;4.50;99.90;;;;;;5081842;28;20226;-70
2023/10/23 03:37:45;;;;;;;1.60;0.80;;;4.40;99.90;;;;;;5081831;28;20181;-71
2023/10/23 03:40:12;;;;;;;2.27;1.20;;;4.40;99.90;;;;;;5078423;28;20189;-70
2023/10/23 03:42:37;;;;;;;1.67;0.90;;;4.40;99.90;;;;;;5080078;28;20612;-73
2023/10/23 03:45:04;;;;;;;1.97;0.90;;;4.50;99.90;;;;;;5040210;28;21204;-71
2023/10/23 03:47:30;;;;;;;5.50;1.60;;;4.40;99.90;;;;;;5061659;28;20189;-70
2023/10/23 03:49:56;;;;;;;3.47;1.43;;;4.40;99.90;;;;;;5062172;28;20426;-71
2023/10/23 03:52:21;;;;;;;7.90;0.80;;;4.40;99.90;;;;;;5065155;28;20209;-70
2023/10/23 03:54:47;;;;;;;19.63;1.63;;;4.30;99.90;;;;;;5073085;28;20234;-70
2023/10/23 03:57:12;;;;;;;3.87;1.97;;;4.40;99.90;;;;;;5076272;28;20193;-73
2023/10/23 03:59:41;;;;;;;1.80;0.93;;;4.40;99.90;;;;;;5049322;28;20205;-70
2023/10/23 04:02:07;;;;;;;3.40;1.67;;;4.40;99.90;;;;;;5073101;28;20201;-71
2023/10/23 04:04:33;;;;;;;4.43;1.70;;;4.30;99.90;;;;;;5052117;28;20428;-71
2023/10/23 04:06:58;;;;;;;7.80;2.07;;;4.30;99.90;;;;;;5047348;28;20179;-71
2023/10/23 04:09:24;;;;;;;6.60;2.63;;;4.20;99.90;;;;;;5070463;28;20176;-70
2023/10/23 04:11:50;;;;;;;2.27;1.40;;;4.30;99.90;;;;;;5067884;28;20318;-71
2023/10/23 04:14:17;;;;;;;4.03;1.60;;;4.20;99.90;;;;;;5074876;28;20176;-69
2023/10/23 04:16:42;;;;;;;2.20;1.20;;;4.30;99.90;;;;;;5075063;28;20181;-70
2023/10/23 04:19:08;;;;;;;6.20;1.87;;;4.20;99.90;;;;;;5071527;28;20936;-69
2023/10/23 04:21:38;;;;;;;4.10;1.80;;;4.20;99.90;;;;;;5069703;28;20209;-70
2023/10/23 04:24:05;;;;;;;8.20;1.80;;;4.00;99.90;;;;;;5061814;28;20690;-70
2023/10/23 04:26:31;;;;;;;7.33;1.90;;;4.00;99.90;;;;;;5075977;28;20455;-74
2023/10/23 04:28:57;;;;;;;3.00;1.90;;;4.00;99.90;;;;;;5048400;28;20539;-70
2023/10/23 04:31:22;;;;;;;2.13;1.20;;;4.60;99.90;;;;;;5068773;28;20206;-70
2023/10/23 04:33:48;;;;;;;4.53;1.80;;;4.00;99.90;;;;;;5066139;28;20528;-70
2023/10/23 04:36:13;;;;;;;6.07;2.00;;;4.00;99.90;;;;;;5054504;28;20177;-72
2023/10/23 04:38:39;;;;;;;2.43;1.40;;;3.90;99.90;;;;;;5072569;28;20196;-70
2023/10/23 04:41:04;;;;;;;12.17;3.20;;;3.90;99.90;;;;;;5067768;28;20465;-70
2023/10/23 04:43:30;;;;;;;9.87;1.60;;;4.00;99.90;;;;;;5072175;28;20224;-71
2023/10/23 04:45:57;;;;;;;5.13;2.10;;;4.00;99.90;;;;;;5081728;28;20571;-71
2023/10/23 04:48:23;;;;;;;4.30;2.53;;;4.00;99.90;;;;;;5072362;28;20615;-70
2023/10/23 04:50:48;;;;;;;14.80;4.57;;;4.00;99.90;;;;;;5072264;28;20475;-70
2023/10/23 04:53:14;;;;;;;8.43;4.00;;;4.00;99.90;;;;;;5072594;28;20582;-72
2023/10/23 04:55:40;;;;;;;13.37;5.37;;;3.90;99.90;;;;;;5072140;28;20268;-72
2023/10/23 04:58:06;;;;;;;12.37;4.37;;;3.90;99.90;;;;;;5073629;28;20561;-71
2023/10/23 05:00:36;;;;;;;11.73;4.33;;;3.90;99.90;;;;;;5071703;28;20419;-73
2023/10/23 05:03:03;;;;;;;13.77;4.53;;;3.80;99.90;;;;;;5069139;28;20467;-71
2023/10/23 05:05:29;;;;;;;11.10;4.40;;;3.80;99.90;;;;;;5064409;28;20438;-71
2023/10/23 05:07:55;;;;;;;8.87;4.60;;;3.90;99.90;;;;;;5063939;28;20434;-71
2023/10/23 05:10:20;;;;;;;14.33;2.37;;;3.90;99.90;;;;;;5062437;28;20676;-72
2023/10/23 05:12:49;;;;;;;6.03;2.30;;;3.70;99.90;;;;;;5063935;28;20209;-71
2023/10/23 05:15:15;;;;;;;11.90;3.90;;;3.60;99.90;;;;;;5046780;28;20251;-72
2023/10/23 05:17:41;;;;;;;7.57;2.80;;;3.60;99.90;;;;;;5062380;28;20443;-72
2023/10/23 05:20:07;;;;;;;4.37;2.57;;;3.60;99.90;;;;;;5062330;28;20434;-72
2023/10/23 05:22:33;;;;;;;6.53;3.27;;;3.60;99.90;;;;;;5062550;28;20693;-70
2023/10/23 05:24:59;;;;;;;5.20;2.60;;;3.60;99.90;;;;;;5043189;28;20851;-71
2023/10/23 05:27:25;;;;;;;6.60;2.20;;;3.60;99.90;;;;;;5063915;28;20439;-74
2023/10/23 05:29:50;;;;;;;4.43;2.50;;;3.60;99.90;;;;;;5061772;28;20181;-73
2023/10/23 05:32:16;;;;;;;6.13;3.10;;;3.60;99.90;;;;;;5063121;28;20217;-72
2023/10/23 05:34:45;;;;;;;2.50;1.80;;;3.60;99.90;;;;;;5061780;28;20191;-71
2023/10/23 05:37:11;;;;;;;4.57;1.53;;;3.60;99.90;;;;;;5063008;28;20707;-70
2023/10/23 05:39:36;;;;;;;6.63;2.87;;;3.50;99.90;;;;;;5056974;28;20423;-71
2023/10/23 05:42:03;;;;;;;8.47;3.73;;;3.50;99.90;;;;;;5057476;28;20453;-72
2023/10/23 05:44:28;;;;;;;9.30;3.47;;;3.50;99.90;;;;;;5056576;28;20714;-72
2023/10/23 05:46:54;;;;;;;7.63;3.10;;;3.60;99.90;;;;;;5058855;28;20430;-71
2023/10/23 05:49:19;;;;;;;6.07;2.83;;;3.60;99.90;;;;;;5055942;28;20189;-73
2023/10/23 05:51:45;;;;;;;5.57;2.40;;;3.50;99.90;;;;;;5053487;28;20343;-71
2023/10/23 05:54:11;;;;;;;14.47;5.27;;;3.50;99.90;;;;;;5049669;28;20281;-70
2023/10/23 05:56:37;;;;;;;2.97;1.30;;;3.50;99.90;;;;;;5052284;28;20242;-71
2023/10/23 05:59:03;;;;;;;5.77;1.47;;;3.50;99.90;;;;;;5052013;28;21088;-71
2023/10/23 06:01:29;;;;;;;3.23;2.03;;;3.50;99.90;;;;;;5048757;28;20213;-71
2023/10/23 06:03:55;;;;;;;3.20;1.70;;;3.60;99.90;;;;;;5024950;28;20547;-72
2023/10/23 06:06:21;;;;;;;9.83;1.93;;;3.60;99.90;;;;;;5051536;28;21936;-69
2023/10/23 06:08:46;;;;;;;4.40;0.97;;;3.60;99.90;;;;;;5055393;28;20275;-71
2023/10/23 06:11:12;;;;;;;2.50;1.40;;;3.50;99.90;;;;;;5059466;28;20236;-73
2023/10/23 06:13:39;;;;;;;4.53;1.60;;;3.60;99.90;;;;;;5052948;28;20189;-70
2023/10/23 06:16:05;;;;;;;5.00;1.93;;;3.70;99.90;;;;;;5057803;28;20195;-70
2023/10/23 06:18:38;;;;;;;17.07;2.77;;;3.70;99.90;;;;;;5055229;28;20764;-70
2023/10/23 06:21:06;;;;;;;4.57;2.43;;;3.70;99.90;;;;;;5061688;28;20439;-71
2023/10/23 06:23:39;;;;;;;5.30;2.50;;;3.80;99.90;;;;;;5044474;28;20463;-72
2023/10/23 06:26:06;;;;;;;4.90;2.07;;;3.90;99.90;;;;;;5060321;28;20432;-70
2023/10/23 06:28:33;;;;;;;6.47;2.73;;;3.90;99.90;;;;;;5060658;28;20430;-71
2023/10/23 06:31:05;;;;;;;3.43;2.47;;;3.90;99.90;;;;;;5061883;28;21737;-71
2023/10/23 06:33:31;;;;;;;4.77;2.57;;;3.90;99.90;;;;;;5064490;28;20423;-72
2023/10/23 06:35:57;;;;;;;4.60;2.37;;;4.00;99.90;;;;;;5064378;28;20477;-68
2023/10/23 06:38:23;;;;;;;9.73;2.80;;;4.00;99.90;;;;;;5063007;28;20515;-71
2023/10/23 06:40:48;;;;;;;4.60;2.57;;;4.10;99.90;;;;;;5064443;28;20657;-71
2023/10/23 06:43:14;;;;;;;10.00;2.97;;;4.20;99.90;;;;;;5063046;28;20236;-70
2023/10/23 06:45:39;;;;;;;5.10;2.37;;;4.30;99.90;;;;;;5064688;28;20197;-71
2023/10/23 06:48:05;;;;;;;4.63;2.00;;;4.40;99.90;;;;;;5058755;28;20642;-69
2023/10/23 06:50:31;;;;;;;4.97;2.30;;;4.50;99.90;;;;;;5060801;28;20185;-71
2023/10/23 06:52:56;;;;;;;9.90;3.90;;;4.60;99.90;;;;;;5063905;28;20181;-70
2023/10/23 06:55:24;;;;;;;14.83;5.80;;;4.80;99.90;;;;;;5066697;28;20666;-71
2023/10/23 06:57:50;;;;;;;14.07;5.33;;;4.80;99.90;;;;;;5071740;28;20181;-76
2023/10/23 07:00:16;;;;;;;10.43;5.00;;;4.90;99.90;;;;;;5089579;28;20421;-78
2023/10/23 07:02:41;;;;;;;10.60;4.60;;;5.00;99.90;;;;;;5090682;28;20502;-78
2023/10/23 07:05:07;;;;;;;14.83;5.10;;;5.00;99.90;;;;;;5089482;28;20436;-78
2023/10/23 07:07:33;;;;;;;10.17;5.40;;;5.10;99.90;;;;;;5083922;28;20496;-71
2023/10/23 07:09:59;;;;;;;20.30;6.27;;;5.30;99.90;;;;;;5064756;28;20238;-70
2023/10/23 07:12:25;;;;;;;26.13;7.90;;;5.40;99.90;;;;;;5062117;28;20686;-71
2023/10/23 07:14:50;;;;;;;18.83;6.43;;;5.50;99.90;;;;;;5063412;28;20538;-71
2023/10/23 07:17:17;;;;;;;30.93;7.90;;;5.50;99.90;;;;;;5062226;28;20446;-72
2023/10/23 07:19:42;;;;;;;14.20;5.53;;;5.50;99.90;;;;;;5060876;28;20276;-68
2023/10/23 07:22:08;;;;;;;8.90;4.30;;;5.70;99.90;;;;;;5060829;28;20581;-71
2023/10/23 07:24:34;;;;;;;5.60;3.30;;;5.70;99.90;;;;;;5064383;28;20247;-70
2023/10/23 07:26:59;;;;;;;6.63;2.80;;;5.80;99.90;;;;;;5066114;28;20197;-70
2023/10/23 07:29:25;;;;;;;8.33;3.10;;;5.80;99.90;;;;;;5064527;28;20185;-69
2023/10/23 07:31:50;;;;;;;18.17;3.43;;;5.80;99.90;;;;;;5064617;28;20304;-70
2023/10/23 07:34:16;;;;;;;9.00;3.20;;;5.70;99.90;;;;;;5066111;28;20193;-72
2023/10/23 07:36:42;;;;;;;5.33;2.17;;;5.80;99.90;;;;;;5066592;28;21348;-70
2023/10/23 07:39:08;;;;;;;3.40;2.10;;;5.80;99.90;;;;;;5065505;28;20214;-71
2023/10/23 07:41:33;;;;;;;9.97;2.77;;;6.00;99.90;;;;;;5064084;28;20229;-71
2023/10/23 07:43:59;;;;;;;6.03;2.27;;;6.10;99.90;;;;;;5076092;28;20582;-70
2023/10/23 07:46:25;;;;;;;10.73;4.23;;;6.10;99.90;;;;;;5072734;28;20416;-71
2023/10/23 07:48:50;;;;;;;9.23;2.70;;;6.20;99.90;;;;;;5077100;28;20238;-69
2023/10/23 07:51:16;;;;;;;6.73;2.67;;;6.40;99.90;;;;;;5086324;28;20200;-70
2023/10/23 07:53:42;;;;;;;5.17;2.50;;;6.50;99.90;;;;;;5083579;28;20654;-71
2023/10/23 07:56:07;;;;;;;8.40;3.10;;;6.50;99.90;;;;;;5084848;28;20197;-70
2023/10/23 07:58:33;;;;;;;7.70;3.50;;;6.60;99.90;;;;;;5083849;28;20283;-70
2023/10/23 08:01:11;;;;;;;10.90;3.67;;;6.60;99.90;;;;;;5081794;28;20208;-69
2023/10/23 08:03:37;;;;;;;5.10;2.63;;;6.70;99.90;;;;;;5065902;28;20279;-70
2023/10/23 08:06:04;;;;;;;6.30;3.10;;;6.90;99.90;;;;;;5057685;28;20932;-71
2023/10/23 08:08:39;;;;;;;5.03;2.67;;;7.10;99.90;;;;;;5061579;28;20993;-71
2023/10/23 08:11:07;;;;;;;8.20;2.97;;;7.30;99.90;;;;;;5075969;28;20441;-70
2023/10/23 08:13:33;;;;;;;15.03;3.90;;;7.50;99.90;;;;;;5083494;28;20426;-70
2023/10/23 08:15:59;;;;;;;8.77;3.57;;;7.60;99.90;;;;;;5084646;28;20816;-71
2023/10/23 08:18:24;;;;;;;8.87;4.23;;;7.60;99.90;;;;;;5082533;28;20430;-69
2023/10/23 08:20:50;;;;;;;8.53;4.17;;;7.70;99.90;;;;;;5083096;28;20467;-70
2023/10/23 08:23:16;;;;;;;8.13;3.97;;;7.80;99.90;;;;;;5084205;28;20208;-71
2023/10/23 08:25:41;;;;;;;6.07;2.50;;;8.00;99.90;;;;;;5082592;28;20196;-70
2023/10/23 08:28:08;;;;;;;11.83;3.07;;;8.20;99.90;;;;;;5084371;28;20752;-75
2023/10/23 08:30:34;;;;;;;10.80;3.50;;;8.20;99.90;;;;;;5079480;28;20669;-72
2023/10/23 08:33:00;;;;;;;15.57;4.07;;;8.30;99.90;;;;;;5070646;28;20438;-71
2023/10/23 08:35:28;;;;;;;8.00;3.90;;;8.40;99.90;;;;;;5080220;28;20431;-70
2023/10/23 08:37:54;;;;;;;12.93;3.40;;;8.50;99.90;;;;;;5078438;28;20184;-70
2023/10/23 08:40:23;;;;;;;9.30;3.70;;;8.60;99.90;;;;;;5069919;28;20872;-69
2023/10/23 08:42:49;;;;;;;5.90;3.00;;;8.80;99.90;;;;;;5075145;28;20553;-71
2023/10/23 08:45:15;;;;;;;6.93;2.80;;;8.80;99.90;;;;;;5066974;28;20505;-69
2023/10/23 08:47:41;;;;;;;4.20;2.30;;;9.10;99.90;;;;;;5062549;28;20179;-70
2023/10/23 08:50:07;;;;;;;9.40;3.40;;;9.00;99.90;;;;;;5060438;28;20416;-70
2023/10/23 08:52:49;;;;;;;7.37;3.20;;;9.10;99.90;;;;;;5061764;28;20263;-71
2023/10/23 08:55:15;;;;;;;6.13;3.03;;;9.20;99.90;;;;;;5067574;28;20185;-70
2023/10/23 08:57:50;;;;;;;5.43;2.53;;;9.30;99.90;;;;;;5060037;28;20762;-71
2023/10/23 09:00:16;;;;;;;7.33;2.70;;;9.40;99.90;;;;;;5064913;28;20173;-71
2023/10/23 09:02:42;;;;;;;3.93;2.37;;;9.40;99.90;;;;;;5060186;28;20462;-71
2023/10/23 09:05:07;;;;;;;3.37;2.00;;;9.50;99.90;;;;;;5090396;28;20264;-70
2023/10/23 09:07:33;;;;;;;8.13;2.00;;;9.50;99.90;;;;;;5082501;28;20239;-70
2023/10/23 09:10:03;;;;;;;7.03;2.50;;;9.60;99.90;;;;;;5070196;28;20181;-70
2023/10/23 09:12:35;;;;;;;6.20;1.90;;;9.70;99.90;;;;;;5080749;28;20219;-70
2023/10/23 09:15:26;;;;;;;4.20;2.27;;;9.70;99.90;;;;;;5060860;28;20412;-70
2023/10/23 09:17:53;;;;;;;4.43;1.50;;;9.80;99.90;;;;;;5070334;28;20429;-73
2023/10/23 09:20:26;;;;;;;6.63;1.97;;;9.90;99.90;;;;;;5080916;28;20497;-71
2023/10/23 09:22:52;;;;;;;22.07;1.87;;;10.00;99.90;;;;;;5078649;28;20463;-71
2023/10/23 09:25:18;;;;;;;11.60;2.93;;;10.10;99.90;;;;;;5074562;28;20493;-71
2023/10/23 09:27:44;;;;;;;4.33;2.40;;;10.30;99.90;;;;;;5074541;28;20889;-71
2023/10/23 09:30:13;;;;;;;6.03;2.30;;;10.30;99.90;;;;;;5073820;28;20196;-74
2023/10/23 09:32:39;;;;;;;4.77;2.23;;;10.30;99.90;;;;;;5079640;28;21170;-72
2023/10/23 09:35:05;;;;;;;8.10;2.77;;;10.20;99.90;;;;;;5061344;28;20683;-70
2023/10/23 09:37:31;;;;;;;3.93;2.10;;;10.30;99.90;;;;;;5058860;28;20460;-70
2023/10/23 09:40:05;;;;;;;3.63;2.07;;;10.20;99.90;;;;;;5058378;28;20514;-70
2023/10/23 09:42:32;;;;;;;5.53;2.90;;;10.30;99.90;;;;;;5059524;28;20212;-70
2023/10/23 09:45:04;;;;;;;3.90;2.00;;;10.20;99.90;;;;;;5059916;28;20455;-71
2023/10/23 09:47:30;;;;;;;10.00;3.27;;;10.30;99.90;;;;;;5041068;28;20958;-71
2023/10/23 09:49:56;;;;;;;3.73;1.60;;;10.40;99.90;;;;;;5057920;28;20424;-71
2023/10/23 09:52:26;;;;;;;4.57;2.47;;;10.40;99.90;;;;;;5059823;28;20449;-72
2023/10/23 09:55:06;;;;;;;4.03;1.63;;;10.50;99.90;;;;;;5059404;28;20261;-71
2023/10/23 09:57:37;;;;;;;3.23;1.70;;;10.60;99.90;;;;;;5041442;28;20454;-71
2023/10/23 10:00:14;;;;;;;6.63;1.63;;;10.80;99.90;;;;;;5057158;28;20490;-72
2023/10/23 10:02:55;;;;;;;3.77;1.83;;;10.90;99.90;;;;;;5063011;28;20470;-72
2023/10/23 10:05:27;;;;;;;6.93;1.67;;;11.00;99.90;;;;;;5061119;28;20416;-71
2023/10/23 10:08:11;;;;;;;4.20;2.17;;;11.10;99.90;;;;;;5065816;28;20460;-72
2023/10/23 10:10:38;;;;;;;4.40;2.37;;;11.20;99.90;;;;;;5054723;28;20454;-72
2023/10/23 10:13:04;;;;;;;5.37;1.83;;;11.40;99.90;;;;;;5070779;28;20411;-71
2023/10/23 10:15:33;;;;;;;4.00;1.87;;;11.50;99.90;;;;;;5071112;28;20418;-71
2023/10/23 10:17:59;;;;;;;4.00;1.80;;;11.60;99.90;;;;;;5070862;28;20423;-73
2023/10/23 10:20:25;;;;;;;5.27;2.20;;;11.70;99.90;;;;;;5069477;28;20936;-72
2023/10/23 10:23:11;;;;;;;5.27;2.40;;;11.70;99.90;;;;;;5070814;28;20201;-71
2023/10/23 10:25:38;;;;;;;3.03;1.53;;;11.70;99.90;;;;;;5071655;28;20495;-71
2023/10/23 10:28:06;;;;;;;7.53;2.33;;;11.60;99.90;;;;;;5072180;28;20499;-69
2023/10/23 10:30:50;;;;;;;8.67;2.20;;;11.70;99.90;;;;;;5052843;28;20431;-71
2023/10/23 10:33:29;;;;;;;3.13;1.90;;;11.80;99.90;;;;;;5071044;28;20419;-71
2023/10/23 10:36:05;;;;;;;3.77;2.00;;;11.90;99.90;;;;;;5070803;28;20801;-71
2023/10/23 10:38:33;;;;;;;3.33;1.80;;;12.00;99.90;;;;;;5070306;28;20446;-71
2023/10/23 10:41:00;;;;;;;7.67;2.57;;;11.90;99.90;;;;;;5071015;28;20542;-71
2023/10/23 10:43:37;;;;;;;5.00;2.50;;;11.90;99.90;;;;;;5048997;28;20697;-74
2023/10/23 10:46:21;;;;;;;11.67;3.03;;;11.90;99.90;;;;;;5075845;28;20407;-71
2023/10/23 10:48:49;;;;;;;10.53;2.20;;;12.00;99.90;;;;;;5069071;28;20819;-71
2023/10/23 10:51:23;;;;;;;5.33;2.10;;;12.00;99.90;;;;;;5072546;28;20443;-71
2023/10/23 10:54:06;;;;;;;7.17;3.00;;;12.00;99.90;;;;;;5067885;28;20423;-72
2023/10/23 10:56:32;;;;;;;6.27;2.37;;;12.00;99.90;;;;;;5070825;28;20774;-72
2023/10/23 10:59:02;;;;;;;1.70;1.10;;;12.00;99.90;;;;;;5074073;28;20499;-73
2023/10/23 11:01:27;;;;;;;4.63;2.60;;;12.00;99.90;;;;;;5091158;28;20208;-71
2023/10/23 11:03:53;;;;;;;9.67;2.80;;;12.10;99.90;;;;;;5073562;28;20467;-73
2023/10/23 11:06:19;;;;;;;3.40;2.13;;;12.10;99.90;;;;;;5057265;28;20181;-71
2023/10/23 11:08:46;;;;;;;3.90;1.83;;;12.30;99.90;;;;;;5062660;28;20184;-71
2023/10/23 11:11:12;;;;;;;5.47;1.43;;;12.30;99.90;;;;;;5082097;28;20223;-71
2023/10/23 11:13:38;;;;;;;4.43;2.10;;;12.30;99.90;;;;;;5089239;28;20931;-72
2023/10/23 11:16:07;;;;;;;4.20;2.03;;;12.30;99.90;;;;;;5079837;28;20181;-72
2023/10/23 11:18:32;;;;;;;9.70;2.60;;;12.30;99.90;;;;;;5073746;28;20431;-74
2023/10/23 11:21:00;;;;;;;7.67;2.23;;;12.40;99.90;;;;;;5089255;28;20519;-71
2023/10/23 11:23:28;;;;;;;5.63;1.97;;;12.30;99.90;;;;;;5077260;28;20209;-71
2023/10/23 11:25:54;;;;;;;6.10;1.73;;;12.40;99.90;;;;;;5087397;28;20833;-71
2023/10/23 11:28:20;;;;;;;6.77;2.93;;;12.50;99.90;;;;;;5077313;28;20410;-71
2023/10/23 11:30:57;;;;;;;7.43;2.27;;;12.50;99.90;;;;;;5058134;28;20445;-71
2023/10/23 11:33:22;;;;;;;4.50;2.00;;;12.60;99.90;;;;;;5086469;28;20419;-71
2023/10/23 11:35:48;;;;;;;3.50;1.60;;;12.70;99.90;;;;;;5077176;28;20445;-71
2023/10/23 11:38:15;;;;;;;6.80;2.20;;;12.70;99.90;;;;;;5077105;28;20190;-71
2023/10/23 11:40:42;;;;;;;2.90;1.53;;;12.60;99.90;;;;;;5085500;28;20276;-72
2023/10/23 11:43:13;;;;;;;4.67;1.40;;;12.60;99.90;;;;;;5083916;28;20473;-72
2023/10/23 11:45:40;;;;;;;5.00;2.00;;;12.60;99.90;;;;;;5104009;28;20495;-78
2023/10/23 11:48:07;;;;;;;3.17;1.60;;;12.40;99.90;;;;;;5102972;28;20437;-78
2023/10/23 11:50:35;;;;;;;1.83;0.90;;;12.30;99.90;;;;;;5128946;28;20432;-78
2023/10/23 11:53:03;;;;;;;2.60;1.37;;;12.20;99.90;;;;;;5128931;28;20444;-75
2023/10/23 11:55:29;;;;;;;4.97;1.57;;;12.30;99.90;;;;;;5115884;28;20425;-70
2023/10/23 11:57:56;;;;;;;4.03;1.80;;;12.20;99.90;;;;;;5099906;28;20423;-71
2023/10/23 12:00:22;;;;;;;2.50;1.53;;;12.20;99.90;;;;;;5102731;28;20417;-70
2023/10/23 12:02:48;;;;;;;5.30;1.70;;;12.10;99.90;;;;;;5081854;28;20545;-71
2023/10/23 12:05:20;;;;;;;4.03;2.07;;;12.00;99.90;;;;;;5110518;28;20413;-70
2023/10/23 12:07:50;;;;;;;5.60;2.00;;;12.00;99.90;;;;;;5102425;28;20491;-70
2023/10/23 12:10:17;;;;;;;2.40;1.40;;;11.90;99.90;;;;;;5092721;28;20414;-72
2023/10/23 12:12:43;;;;;;;4.40;1.87;;;11.90;99.90;;;;;;5093392;28;20450;-71
2023/10/23 12:15:10;;;;;;;3.10;1.40;;;11.90;99.90;;;;;;5106045;28;20504;-71
2023/10/23 12:17:37;;;;;;;4.37;1.70;;;11.90;99.90;;;;;;5093001;28;20927;-72
2023/10/23 12:20:07;;;;;;;4.10;2.17;;;11.90;99.90;;;;;;5087583;28;20435;-71
2023/10/23 12:22:37;;;;;;;4.73;2.20;;;11.90;99.90;;;;;;5096388;28;20592;-72
2023/10/23 12:25:04;;;;;;;7.73;2.43;;;12.00;99.90;;;;;;5089548;28;20423;-72
2023/10/23 12:27:31;;;;;;;3.37;1.93;;;12.00;99.90;;;;;;5094863;28;20427;-74
2023/10/23 12:29:57;;;;;;;6.20;2.07;;;12.00;99.90;;;;;;5087531;28;20998;-71
2023/10/23 12:32:24;;;;;;;2.50;1.60;;;12.00;99.90;;;;;;5071967;28;20443;-72
2023/10/23 12:34:50;;;;;;;8.40;2.93;;;12.00;99.90;;;;;;5089935;28;20601;-71
2023/10/23 12:37:15;;;;;;;3.20;1.30;;;12.10;99.90;;;;;;5089223;28;20437;-72
2023/10/23 12:39:41;;;;;;;6.03;2.93;;;12.20;99.90;;;;;;5086412;28;20525;-71
2023/10/23 12:42:07;;;;;;;2.60;1.90;;;12.10;99.90;;;;;;5084318;28;20212;-73
2023/10/23 12:44:32;;;;;;;3.30;1.40;;;12.20;99.90;;;;;;5086778;28;20227;-71
2023/10/23 12:46:58;;;;;;;3.93;1.50;;;12.20;99.90;;;;;;5085187;28;20244;-72
2023/10/23 12:49:25;;;;;;;3.00;1.50;;;12.10;99.90;;;;;;5063965;28;20193;-71
2023/10/23 12:51:51;;;;;;;7.00;2.23;;;12.10;99.90;;;;;;5076741;28;20650;-71